sensor_id;sensor_type;location;lat;lon;timestamp;P1;durP1;ratioP1;P2;durP2;ratioP2
44822;SDS011;51097;51.984;5.650;2022-07-03T00:01:04;5.47;;;3.95;;
44822;SDS011;51097;51.984;5.650;2022-07-03T00:03:29;3.85;;;3.55;;
44822;SDS011;51097;51.984;5.650;2022-07-03T00:05:55;4.82;;;4.32;;
44822;SDS011;51097;51.984;5.650;2022-07-03T00:08:20;3.83;;;3.53;;
44822;SDS011;51097;51.984;5.650;2022-07-03T00:10:46;5.20;;;3.72;;
44822;SDS011;51097;51.984;5.650;2022-07-03T00:13:15;4.35;;;3.00;;
44822;SDS011;51097;51.984;5.650;2022-07-03T00:15:41;4.10;;;3.70;;
44822;SDS011;51097;51.984;5.650;2022-07-03T00:18:08;3.50;;;3.20;;
44822;SDS011;51097;51.984;5.650;2022-07-03T00:20:35;5.00;;;4.38;;
44822;SDS011;51097;51.984;5.650;2022-07-03T00:23:06;5.03;;;4.18;;
44822;SDS011;51097;51.984;5.650;2022-07-03T00:25:34;7.30;;;3.95;;
44822;SDS011;51097;51.984;5.650;2022-07-03T00:28:01;5.93;;;3.70;;
44822;SDS011;51097;51.984;5.650;2022-07-03T00:30:28;5.68;;;3.25;;
44822;SDS011;51097;51.984;5.650;2022-07-03T00:32:54;5.32;;;4.57;;
44822;SDS011;51097;51.984;5.650;2022-07-03T00:35:19;4.78;;;4.22;;
44822;SDS011;51097;51.984;5.650;2022-07-03T00:37:45;4.93;;;4.50;;
44822;SDS011;51097;51.984;5.650;2022-07-03T00:40:11;5.97;;;3.95;;
44822;SDS011;51097;51.984;5.650;2022-07-03T00:42:37;9.80;;;5.45;;
44822;SDS011;51097;51.984;5.650;2022-07-03T00:45:04;5.93;;;4.95;;
44822;SDS011;51097;51.984;5.650;2022-07-03T00:47:32;4.20;;;3.90;;
44822;SDS011;51097;51.984;5.650;2022-07-03T00:50:01;6.07;;;5.47;;
44822;SDS011;51097;51.984;5.650;2022-07-03T00:52:32;5.07;;;4.65;;
44822;SDS011;51097;51.984;5.650;2022-07-03T00:54:58;5.13;;;4.22;;
44822;SDS011;51097;51.984;5.650;2022-07-03T00:57:29;4.07;;;3.60;;
44822;SDS011;51097;51.984;5.650;2022-07-03T00:59:55;6.45;;;4.68;;
44822;SDS011;51097;51.984;5.650;2022-07-03T01:05:12;4.68;;;4.03;;
44822;SDS011;51097;51.984;5.650;2022-07-03T01:08:09;4.65;;;4.13;;
44822;SDS011;51097;51.984;5.650;2022-07-03T01:19:19;5.65;;;4.43;;
44822;SDS011;51097;51.984;5.650;2022-07-03T01:21:54;5.93;;;4.72;;
44822;SDS011;51097;51.984;5.650;2022-07-03T01:27:12;6.35;;;4.72;;
44822;SDS011;51097;51.984;5.650;2022-07-03T01:29:46;4.82;;;4.25;;
44822;SDS011;51097;51.984;5.650;2022-07-03T01:32:17;5.45;;;4.95;;
44822;SDS011;51097;51.984;5.650;2022-07-03T01:34:46;4.88;;;4.47;;
44822;SDS011;51097;51.984;5.650;2022-07-03T01:37:16;7.50;;;4.53;;
44822;SDS011;51097;51.984;5.650;2022-07-03T01:39:46;6.30;;;5.70;;
44822;SDS011;51097;51.984;5.650;2022-07-03T01:42:16;5.22;;;4.72;;
44822;SDS011;51097;51.984;5.650;2022-07-03T01:44:44;8.18;;;5.68;;
44822;SDS011;51097;51.984;5.650;2022-07-03T01:47:12;6.07;;;5.57;;
44822;SDS011;51097;51.984;5.650;2022-07-03T01:49:40;6.03;;;4.22;;
44822;SDS011;51097;51.984;5.650;2022-07-03T01:52:06;5.22;;;4.72;;
44822;SDS011;51097;51.984;5.650;2022-07-03T01:54:33;8.20;;;5.10;;
44822;SDS011;51097;51.984;5.650;2022-07-03T01:57:02;7.30;;;6.07;;
44822;SDS011;51097;51.984;5.650;2022-07-03T01:59:31;6.40;;;5.57;;
44822;SDS011;51097;51.984;5.650;2022-07-03T02:02:14;6.30;;;5.70;;
44822;SDS011;51097;51.984;5.650;2022-07-03T02:05:05;6.35;;;5.05;;
44822;SDS011;51097;51.984;5.650;2022-07-03T02:07:36;6.15;;;5.38;;
44822;SDS011;51097;51.984;5.650;2022-07-03T02:10:10;9.55;;;5.30;;
44822;SDS011;51097;51.984;5.650;2022-07-03T02:12:47;7.03;;;5.93;;
44822;SDS011;51097;51.984;5.650;2022-07-03T02:15:17;6.40;;;5.43;;
44822;SDS011;51097;51.984;5.650;2022-07-03T02:20:14;7.03;;;5.78;;
44822;SDS011;51097;51.984;5.650;2022-07-03T02:22:42;6.35;;;5.90;;
44822;SDS011;51097;51.984;5.650;2022-07-03T02:25:21;6.05;;;5.43;;
44822;SDS011;51097;51.984;5.650;2022-07-03T02:28:02;8.05;;;5.95;;
44822;SDS011;51097;51.984;5.650;2022-07-03T02:30:51;8.23;;;6.78;;
44822;SDS011;51097;51.984;5.650;2022-07-03T02:33:21;8.10;;;5.95;;
44822;SDS011;51097;51.984;5.650;2022-07-03T02:35:52;6.10;;;5.55;;
44822;SDS011;51097;51.984;5.650;2022-07-03T02:38:20;6.03;;;5.15;;
44822;SDS011;51097;51.984;5.650;2022-07-03T02:40:50;6.50;;;5.35;;
44822;SDS011;51097;51.984;5.650;2022-07-03T02:43:42;6.35;;;5.85;;
44822;SDS011;51097;51.984;5.650;2022-07-03T02:49:11;5.80;;;4.90;;
44822;SDS011;51097;51.984;5.650;2022-07-03T02:52:02;7.82;;;5.25;;
44822;SDS011;51097;51.984;5.650;2022-07-03T02:54:50;6.85;;;6.20;;
44822;SDS011;51097;51.984;5.650;2022-07-03T02:57:17;6.13;;;5.60;;
44822;SDS011;51097;51.984;5.650;2022-07-03T03:04:58;7.07;;;6.40;;
44822;SDS011;51097;51.984;5.650;2022-07-03T03:08:04;6.88;;;6.25;;
44822;SDS011;51097;51.984;5.650;2022-07-03T03:10:26;8.63;;;6.88;;
44822;SDS011;51097;51.984;5.650;2022-07-03T03:12:54;6.78;;;6.13;;
44822;SDS011;51097;51.984;5.650;2022-07-03T03:15:29;9.60;;;7.18;;
44822;SDS011;51097;51.984;5.650;2022-07-03T03:17:56;8.95;;;6.70;;
44822;SDS011;51097;51.984;5.650;2022-07-03T03:20:32;9.32;;;8.43;;
44822;SDS011;51097;51.984;5.650;2022-07-03T03:23:19;7.18;;;5.90;;
44822;SDS011;51097;51.984;5.650;2022-07-03T03:25:54;10.20;;;7.10;;
44822;SDS011;51097;51.984;5.650;2022-07-03T03:28:20;11.05;;;7.38;;
44822;SDS011;51097;51.984;5.650;2022-07-03T03:30:47;6.85;;;6.13;;
44822;SDS011;51097;51.984;5.650;2022-07-03T03:33:13;7.75;;;7.15;;
44822;SDS011;51097;51.984;5.650;2022-07-03T03:35:39;10.02;;;7.68;;
44822;SDS011;51097;51.984;5.650;2022-07-03T03:38:05;8.15;;;7.20;;
44822;SDS011;51097;51.984;5.650;2022-07-03T03:40:31;6.40;;;5.88;;
44822;SDS011;51097;51.984;5.650;2022-07-03T03:42:57;6.82;;;5.78;;
44822;SDS011;51097;51.984;5.650;2022-07-03T03:45:23;9.27;;;7.90;;
44822;SDS011;51097;51.984;5.650;2022-07-03T03:47:49;8.43;;;7.70;;
44822;SDS011;51097;51.984;5.650;2022-07-03T03:50:14;8.70;;;7.90;;
44822;SDS011;51097;51.984;5.650;2022-07-03T03:52:41;6.25;;;4.70;;
44822;SDS011;51097;51.984;5.650;2022-07-03T03:55:07;7.13;;;6.45;;
44822;SDS011;51097;51.984;5.650;2022-07-03T03:57:34;6.53;;;5.93;;
44822;SDS011;51097;51.984;5.650;2022-07-03T04:00:01;7.57;;;6.82;;
44822;SDS011;51097;51.984;5.650;2022-07-03T04:02:27;7.53;;;6.63;;
44822;SDS011;51097;51.984;5.650;2022-07-03T04:04:52;6.82;;;6.22;;
44822;SDS011;51097;51.984;5.650;2022-07-03T04:07:18;7.22;;;6.63;;
44822;SDS011;51097;51.984;5.650;2022-07-03T04:09:44;6.97;;;6.00;;
44822;SDS011;51097;51.984;5.650;2022-07-03T04:12:10;9.90;;;6.07;;
44822;SDS011;51097;51.984;5.650;2022-07-03T04:14:36;7.03;;;6.32;;
44822;SDS011;51097;51.984;5.650;2022-07-03T04:17:02;5.13;;;4.63;;
44822;SDS011;51097;51.984;5.650;2022-07-03T04:19:28;7.10;;;6.07;;
44822;SDS011;51097;51.984;5.650;2022-07-03T04:21:53;6.60;;;5.85;;
44822;SDS011;51097;51.984;5.650;2022-07-03T04:24:19;6.93;;;6.20;;
44822;SDS011;51097;51.984;5.650;2022-07-03T04:26:45;8.32;;;6.75;;
44822;SDS011;51097;51.984;5.650;2022-07-03T04:29:10;7.65;;;6.95;;
44822;SDS011;51097;51.984;5.650;2022-07-03T04:31:36;8.93;;;6.38;;
44822;SDS011;51097;51.984;5.650;2022-07-03T04:34:01;7.63;;;5.50;;
44822;SDS011;51097;51.984;5.650;2022-07-03T04:36:27;7.80;;;6.82;;
44822;SDS011;51097;51.984;5.650;2022-07-03T04:38:53;7.90;;;5.80;;
44822;SDS011;51097;51.984;5.650;2022-07-03T04:41:19;9.98;;;8.00;;
44822;SDS011;51097;51.984;5.650;2022-07-03T04:43:44;11.10;;;7.50;;
44822;SDS011;51097;51.984;5.650;2022-07-03T04:46:10;8.80;;;7.68;;
44822;SDS011;51097;51.984;5.650;2022-07-03T04:48:36;9.48;;;6.78;;
44822;SDS011;51097;51.984;5.650;2022-07-03T04:51:01;6.65;;;5.95;;
44822;SDS011;51097;51.984;5.650;2022-07-03T04:53:27;6.70;;;6.10;;
44822;SDS011;51097;51.984;5.650;2022-07-03T04:55:52;8.25;;;5.22;;
44822;SDS011;51097;51.984;5.650;2022-07-03T04:58:18;5.32;;;4.82;;
44822;SDS011;51097;51.984;5.650;2022-07-03T05:00:44;5.25;;;4.70;;
44822;SDS011;51097;51.984;5.650;2022-07-03T05:03:10;7.55;;;4.97;;
44822;SDS011;51097;51.984;5.650;2022-07-03T05:05:36;7.32;;;5.03;;
44822;SDS011;51097;51.984;5.650;2022-07-03T05:08:02;5.90;;;5.15;;
44822;SDS011;51097;51.984;5.650;2022-07-03T05:10:27;8.00;;;4.32;;
44822;SDS011;51097;51.984;5.650;2022-07-03T05:12:53;5.55;;;4.75;;
44822;SDS011;51097;51.984;5.650;2022-07-03T05:15:19;5.40;;;4.75;;
44822;SDS011;51097;51.984;5.650;2022-07-03T05:17:45;7.40;;;4.90;;
44822;SDS011;51097;51.984;5.650;2022-07-03T05:20:11;6.10;;;4.70;;
44822;SDS011;51097;51.984;5.650;2022-07-03T05:22:49;6.35;;;5.28;;
44822;SDS011;51097;51.984;5.650;2022-07-03T05:25:15;6.03;;;4.93;;
44822;SDS011;51097;51.984;5.650;2022-07-03T05:27:41;8.57;;;4.57;;
44822;SDS011;51097;51.984;5.650;2022-07-03T05:30:06;7.95;;;4.57;;
44822;SDS011;51097;51.984;5.650;2022-07-03T05:32:32;8.73;;;5.30;;
44822;SDS011;51097;51.984;5.650;2022-07-03T05:34:58;6.70;;;5.07;;
44822;SDS011;51097;51.984;5.650;2022-07-03T05:37:24;6.07;;;4.07;;
44822;SDS011;51097;51.984;5.650;2022-07-03T05:39:50;9.23;;;4.13;;
44822;SDS011;51097;51.984;5.650;2022-07-03T05:42:15;6.07;;;3.85;;
44822;SDS011;51097;51.984;5.650;2022-07-03T05:44:41;4.40;;;3.55;;
44822;SDS011;51097;51.984;5.650;2022-07-03T05:47:06;7.57;;;3.58;;
44822;SDS011;51097;51.984;5.650;2022-07-03T05:49:32;6.60;;;3.28;;
44822;SDS011;51097;51.984;5.650;2022-07-03T05:51:57;7.45;;;3.28;;
44822;SDS011;51097;51.984;5.650;2022-07-03T05:54:23;8.98;;;3.25;;
44822;SDS011;51097;51.984;5.650;2022-07-03T05:56:49;6.47;;;3.20;;
44822;SDS011;51097;51.984;5.650;2022-07-03T05:59:14;6.15;;;3.28;;
44822;SDS011;51097;51.984;5.650;2022-07-03T06:01:40;7.55;;;3.42;;
44822;SDS011;51097;51.984;5.650;2022-07-03T06:04:05;3.20;;;2.45;;
44822;SDS011;51097;51.984;5.650;2022-07-03T06:06:31;5.68;;;2.60;;
44822;SDS011;51097;51.984;5.650;2022-07-03T06:08:56;5.75;;;2.97;;
44822;SDS011;51097;51.984;5.650;2022-07-03T06:11:22;6.18;;;3.13;;
44822;SDS011;51097;51.984;5.650;2022-07-03T06:13:47;7.18;;;3.30;;
44822;SDS011;51097;51.984;5.650;2022-07-03T06:16:16;4.40;;;2.45;;
44822;SDS011;51097;51.984;5.650;2022-07-03T06:18:41;6.95;;;3.22;;
44822;SDS011;51097;51.984;5.650;2022-07-03T06:21:07;4.88;;;2.42;;
44822;SDS011;51097;51.984;5.650;2022-07-03T06:23:32;9.25;;;2.33;;
44822;SDS011;51097;51.984;5.650;2022-07-03T06:25:59;5.60;;;2.10;;
44822;SDS011;51097;51.984;5.650;2022-07-03T06:28:25;3.55;;;2.13;;
44822;SDS011;51097;51.984;5.650;2022-07-03T06:30:51;5.47;;;2.50;;
44822;SDS011;51097;51.984;5.650;2022-07-03T06:33:16;3.75;;;2.83;;
44822;SDS011;51097;51.984;5.650;2022-07-03T06:35:43;5.07;;;2.25;;
44822;SDS011;51097;51.984;5.650;2022-07-03T06:38:09;6.55;;;2.47;;
44822;SDS011;51097;51.984;5.650;2022-07-03T06:40:34;7.32;;;2.15;;
44822;SDS011;51097;51.984;5.650;2022-07-03T06:43:03;4.55;;;2.17;;
44822;SDS011;51097;51.984;5.650;2022-07-03T06:45:29;6.45;;;1.98;;
44822;SDS011;51097;51.984;5.650;2022-07-03T06:47:55;5.55;;;1.90;;
44822;SDS011;51097;51.984;5.650;2022-07-03T06:50:20;3.50;;;2.00;;
44822;SDS011;51097;51.984;5.650;2022-07-03T06:52:46;6.90;;;2.05;;
44822;SDS011;51097;51.984;5.650;2022-07-03T06:55:12;6.03;;;1.88;;
44822;SDS011;51097;51.984;5.650;2022-07-03T06:57:37;6.30;;;2.38;;
44822;SDS011;51097;51.984;5.650;2022-07-03T07:00:03;6.35;;;2.22;;
44822;SDS011;51097;51.984;5.650;2022-07-03T07:02:30;2.80;;;2.05;;
44822;SDS011;51097;51.984;5.650;2022-07-03T07:04:55;7.88;;;2.33;;
44822;SDS011;51097;51.984;5.650;2022-07-03T07:07:21;4.78;;;1.90;;
44822;SDS011;51097;51.984;5.650;2022-07-03T07:09:46;6.07;;;3.53;;
44822;SDS011;51097;51.984;5.650;2022-07-03T07:12:12;5.95;;;2.22;;
44822;SDS011;51097;51.984;5.650;2022-07-03T07:14:37;4.07;;;2.20;;
44822;SDS011;51097;51.984;5.650;2022-07-03T07:17:03;6.40;;;1.95;;
44822;SDS011;51097;51.984;5.650;2022-07-03T07:19:29;6.80;;;1.63;;
44822;SDS011;51097;51.984;5.650;2022-07-03T07:21:54;7.40;;;1.88;;
44822;SDS011;51097;51.984;5.650;2022-07-03T07:24:20;3.90;;;1.67;;
44822;SDS011;51097;51.984;5.650;2022-07-03T07:26:51;2.85;;;1.50;;
44822;SDS011;51097;51.984;5.650;2022-07-03T07:29:17;6.25;;;1.92;;
44822;SDS011;51097;51.984;5.650;2022-07-03T07:31:42;6.70;;;1.40;;
44822;SDS011;51097;51.984;5.650;2022-07-03T07:34:08;6.63;;;1.80;;
44822;SDS011;51097;51.984;5.650;2022-07-03T07:36:37;4.03;;;1.30;;
44822;SDS011;51097;51.984;5.650;2022-07-03T07:39:02;4.25;;;1.42;;
44822;SDS011;51097;51.984;5.650;2022-07-03T07:41:28;5.70;;;2.17;;
44822;SDS011;51097;51.984;5.650;2022-07-03T07:43:53;5.50;;;1.88;;
44822;SDS011;51097;51.984;5.650;2022-07-03T07:46:19;6.40;;;2.13;;
44822;SDS011;51097;51.984;5.650;2022-07-03T07:48:44;4.28;;;1.20;;
44822;SDS011;51097;51.984;5.650;2022-07-03T07:51:10;4.25;;;1.50;;
44822;SDS011;51097;51.984;5.650;2022-07-03T07:53:36;7.25;;;1.67;;
44822;SDS011;51097;51.984;5.650;2022-07-03T07:56:01;4.00;;;1.95;;
44822;SDS011;51097;51.984;5.650;2022-07-03T07:58:27;8.25;;;1.65;;
44822;SDS011;51097;51.984;5.650;2022-07-03T08:00:53;4.05;;;1.40;;
44822;SDS011;51097;51.984;5.650;2022-07-03T08:03:38;3.53;;;1.60;;
44822;SDS011;51097;51.984;5.650;2022-07-03T08:06:22;6.13;;;1.55;;
44822;SDS011;51097;51.984;5.650;2022-07-03T08:08:47;4.18;;;1.10;;
44822;SDS011;51097;51.984;5.650;2022-07-03T08:11:13;9.63;;;2.15;;
44822;SDS011;51097;51.984;5.650;2022-07-03T08:13:39;2.30;;;1.60;;
44822;SDS011;51097;51.984;5.650;2022-07-03T08:16:04;5.78;;;1.40;;
44822;SDS011;51097;51.984;5.650;2022-07-03T08:18:30;4.00;;;1.50;;
44822;SDS011;51097;51.984;5.650;2022-07-03T08:20:55;4.68;;;1.58;;
44822;SDS011;51097;51.984;5.650;2022-07-03T08:23:21;5.85;;;1.52;;
44822;SDS011;51097;51.984;5.650;2022-07-03T08:25:46;2.67;;;1.40;;
44822;SDS011;51097;51.984;5.650;2022-07-03T08:28:12;3.33;;;1.25;;
44822;SDS011;51097;51.984;5.650;2022-07-03T08:30:38;2.47;;;1.30;;
44822;SDS011;51097;51.984;5.650;2022-07-03T08:33:03;1.83;;;0.95;;
44822;SDS011;51097;51.984;5.650;2022-07-03T08:35:29;3.30;;;1.38;;
44822;SDS011;51097;51.984;5.650;2022-07-03T08:37:54;6.57;;;1.60;;
44822;SDS011;51097;51.984;5.650;2022-07-03T08:40:21;4.85;;;1.40;;
44822;SDS011;51097;51.984;5.650;2022-07-03T08:42:48;3.05;;;1.27;;
44822;SDS011;51097;51.984;5.650;2022-07-03T08:45:15;4.68;;;1.08;;
44822;SDS011;51097;51.984;5.650;2022-07-03T08:47:46;3.78;;;1.40;;
44822;SDS011;51097;51.984;5.650;2022-07-03T08:50:18;2.00;;;1.02;;
44822;SDS011;51097;51.984;5.650;2022-07-03T08:52:44;7.65;;;1.67;;
44822;SDS011;51097;51.984;5.650;2022-07-03T08:55:11;3.58;;;1.30;;
44822;SDS011;51097;51.984;5.650;2022-07-03T09:00:07;3.70;;;1.00;;
44822;SDS011;51097;51.984;5.650;2022-07-03T09:02:38;3.72;;;1.65;;
44822;SDS011;51097;51.984;5.650;2022-07-03T09:05:12;2.72;;;1.30;;
44822;SDS011;51097;51.984;5.650;2022-07-03T09:07:39;2.58;;;1.35;;
44822;SDS011;51097;51.984;5.650;2022-07-03T09:10:06;3.25;;;1.48;;
44822;SDS011;51097;51.984;5.650;2022-07-03T09:12:33;1.92;;;0.98;;
44822;SDS011;51097;51.984;5.650;2022-07-03T09:15:00;2.00;;;1.10;;
44822;SDS011;51097;51.984;5.650;2022-07-03T09:17:30;2.38;;;0.98;;
44822;SDS011;51097;51.984;5.650;2022-07-03T09:20:00;2.78;;;0.88;;
44822;SDS011;51097;51.984;5.650;2022-07-03T09:22:32;4.68;;;1.10;;
44822;SDS011;51097;51.984;5.650;2022-07-03T09:25:09;1.52;;;1.35;;
44822;SDS011;51097;51.984;5.650;2022-07-03T09:27:37;1.75;;;0.95;;
44822;SDS011;51097;51.984;5.650;2022-07-03T09:30:13;2.63;;;1.50;;
44822;SDS011;51097;51.984;5.650;2022-07-03T09:32:45;3.22;;;1.10;;
44822;SDS011;51097;51.984;5.650;2022-07-03T09:35:14;2.60;;;0.90;;
44822;SDS011;51097;51.984;5.650;2022-07-03T09:37:52;2.28;;;0.73;;
44822;SDS011;51097;51.984;5.650;2022-07-03T09:40:20;2.60;;;1.13;;
44822;SDS011;51097;51.984;5.650;2022-07-03T09:43:03;3.00;;;1.48;;
44822;SDS011;51097;51.984;5.650;2022-07-03T09:48:29;3.90;;;1.00;;
44822;SDS011;51097;51.984;5.650;2022-07-03T09:51:09;4.80;;;1.13;;
44822;SDS011;51097;51.984;5.650;2022-07-03T09:56:13;3.30;;;1.20;;
44822;SDS011;51097;51.984;5.650;2022-07-03T09:58:41;1.95;;;0.90;;
44822;SDS011;51097;51.984;5.650;2022-07-03T10:01:23;1.70;;;1.20;;
44822;SDS011;51097;51.984;5.650;2022-07-03T10:03:48;2.65;;;0.73;;
44822;SDS011;51097;51.984;5.650;2022-07-03T10:06:14;3.58;;;1.17;;
44822;SDS011;51097;51.984;5.650;2022-07-03T10:08:39;2.85;;;1.10;;
44822;SDS011;51097;51.984;5.650;2022-07-03T10:11:08;3.00;;;0.95;;
44822;SDS011;51097;51.984;5.650;2022-07-03T10:13:36;6.57;;;1.30;;
44822;SDS011;51097;51.984;5.650;2022-07-03T10:16:04;3.58;;;0.88;;
44822;SDS011;51097;51.984;5.650;2022-07-03T10:18:31;3.97;;;1.45;;
44822;SDS011;51097;51.984;5.650;2022-07-03T10:21:01;1.90;;;0.95;;
44822;SDS011;51097;51.984;5.650;2022-07-03T10:23:30;2.60;;;1.25;;
44822;SDS011;51097;51.984;5.650;2022-07-03T10:25:56;2.72;;;0.80;;
44822;SDS011;51097;51.984;5.650;2022-07-03T10:28:23;2.33;;;0.88;;
44822;SDS011;51097;51.984;5.650;2022-07-03T10:30:49;3.88;;;0.90;;
44822;SDS011;51097;51.984;5.650;2022-07-03T10:33:16;3.08;;;1.10;;
44822;SDS011;51097;51.984;5.650;2022-07-03T10:35:42;3.03;;;1.25;;
44822;SDS011;51097;51.984;5.650;2022-07-03T10:44:04;1.80;;;1.00;;
44822;SDS011;51097;51.984;5.650;2022-07-03T10:46:49;1.60;;;1.08;;
44822;SDS011;51097;51.984;5.650;2022-07-03T10:49:14;2.75;;;1.10;;
44822;SDS011;51097;51.984;5.650;2022-07-03T10:54:29;2.97;;;1.33;;
44822;SDS011;51097;51.984;5.650;2022-07-03T11:02:21;3.40;;;1.20;;
44822;SDS011;51097;51.984;5.650;2022-07-03T11:07:27;4.13;;;1.08;;
44822;SDS011;51097;51.984;5.650;2022-07-03T11:18:12;3.38;;;1.30;;
44822;SDS011;51097;51.984;5.650;2022-07-03T11:23:19;1.75;;;0.82;;
44822;SDS011;51097;51.984;5.650;2022-07-03T11:25:52;2.58;;;1.15;;
44822;SDS011;51097;51.984;5.650;2022-07-03T11:34:17;3.20;;;1.20;;
44822;SDS011;51097;51.984;5.650;2022-07-03T11:36:32;1.77;;;1.00;;
44822;SDS011;51097;51.984;5.650;2022-07-03T11:41:25;3.95;;;1.38;;
44822;SDS011;51097;51.984;5.650;2022-07-03T11:43:53;3.10;;;0.90;;
44822;SDS011;51097;51.984;5.650;2022-07-03T11:46:24;1.55;;;0.63;;
44822;SDS011;51097;51.984;5.650;2022-07-03T11:49:04;2.60;;;1.05;;
44822;SDS011;51097;51.984;5.650;2022-07-03T11:51:30;4.65;;;1.38;;
44822;SDS011;51097;51.984;5.650;2022-07-03T11:53:55;2.30;;;1.27;;
44822;SDS011;51097;51.984;5.650;2022-07-03T11:56:21;2.00;;;1.08;;
44822;SDS011;51097;51.984;5.650;2022-07-03T11:58:54;1.92;;;1.10;;
44822;SDS011;51097;51.984;5.650;2022-07-03T12:03:47;6.25;;;1.30;;
44822;SDS011;51097;51.984;5.650;2022-07-03T12:06:13;2.85;;;1.10;;
44822;SDS011;51097;51.984;5.650;2022-07-03T12:08:39;4.32;;;1.08;;
44822;SDS011;51097;51.984;5.650;2022-07-03T12:11:08;4.30;;;0.82;;
44822;SDS011;51097;51.984;5.650;2022-07-03T12:13:34;3.15;;;0.98;;
44822;SDS011;51097;51.984;5.650;2022-07-03T12:16:00;1.40;;;0.80;;
44822;SDS011;51097;51.984;5.650;2022-07-03T12:18:40;4.13;;;1.48;;
44822;SDS011;51097;51.984;5.650;2022-07-03T12:21:17;1.88;;;0.90;;
44822;SDS011;51097;51.984;5.650;2022-07-03T12:23:45;2.38;;;1.00;;
44822;SDS011;51097;51.984;5.650;2022-07-03T12:28:54;2.47;;;1.05;;
44822;SDS011;51097;51.984;5.650;2022-07-03T12:31:21;2.25;;;1.02;;
44822;SDS011;51097;51.984;5.650;2022-07-03T12:33:46;3.15;;;1.00;;
44822;SDS011;51097;51.984;5.650;2022-07-03T12:36:12;2.45;;;0.90;;
44822;SDS011;51097;51.984;5.650;2022-07-03T12:38:38;1.77;;;0.98;;
44822;SDS011;51097;51.984;5.650;2022-07-03T12:41:06;1.08;;;0.73;;
44822;SDS011;51097;51.984;5.650;2022-07-03T12:43:37;1.85;;;1.00;;
44822;SDS011;51097;51.984;5.650;2022-07-03T12:46:19;2.97;;;0.70;;
44822;SDS011;51097;51.984;5.650;2022-07-03T12:48:56;1.27;;;0.70;;
44822;SDS011;51097;51.984;5.650;2022-07-03T12:51:38;1.50;;;0.95;;
44822;SDS011;51097;51.984;5.650;2022-07-03T12:54:13;2.97;;;0.80;;
44822;SDS011;51097;51.984;5.650;2022-07-03T12:56:40;1.42;;;0.70;;
44822;SDS011;51097;51.984;5.650;2022-07-03T12:59:24;1.95;;;1.58;;
44822;SDS011;51097;51.984;5.650;2022-07-03T13:02:04;3.53;;;0.82;;
44822;SDS011;51097;51.984;5.650;2022-07-03T13:04:34;1.95;;;0.85;;
44822;SDS011;51097;51.984;5.650;2022-07-03T13:07:05;5.53;;;1.17;;
44822;SDS011;51097;51.984;5.650;2022-07-03T13:09:33;2.03;;;0.80;;
44822;SDS011;51097;51.984;5.650;2022-07-03T13:12:00;1.92;;;0.98;;
44822;SDS011;51097;51.984;5.650;2022-07-03T13:14:26;1.35;;;1.10;;
44822;SDS011;51097;51.984;5.650;2022-07-03T13:16:53;3.25;;;1.05;;
44822;SDS011;51097;51.984;5.650;2022-07-03T13:19:20;1.27;;;1.05;;
44822;SDS011;51097;51.984;5.650;2022-07-03T13:21:51;1.77;;;0.82;;
44822;SDS011;51097;51.984;5.650;2022-07-03T13:24:19;1.65;;;0.82;;
44822;SDS011;51097;51.984;5.650;2022-07-03T13:26:45;1.88;;;0.80;;
44822;SDS011;51097;51.984;5.650;2022-07-03T13:29:11;2.55;;;1.10;;
44822;SDS011;51097;51.984;5.650;2022-07-03T13:31:37;3.38;;;1.00;;
44822;SDS011;51097;51.984;5.650;2022-07-03T13:34:03;3.03;;;1.05;;
44822;SDS011;51097;51.984;5.650;2022-07-03T13:36:29;1.63;;;1.00;;
44822;SDS011;51097;51.984;5.650;2022-07-03T13:38:55;2.25;;;0.90;;
44822;SDS011;51097;51.984;5.650;2022-07-03T13:41:21;1.95;;;1.02;;
44822;SDS011;51097;51.984;5.650;2022-07-03T13:43:48;3.40;;;1.50;;
44822;SDS011;51097;51.984;5.650;2022-07-03T13:46:14;3.28;;;1.40;;
44822;SDS011;51097;51.984;5.650;2022-07-03T13:48:41;4.18;;;1.20;;
44822;SDS011;51097;51.984;5.650;2022-07-03T13:51:06;3.28;;;1.40;;
44822;SDS011;51097;51.984;5.650;2022-07-03T13:53:32;3.90;;;2.38;;
44822;SDS011;51097;51.984;5.650;2022-07-03T13:55:59;2.03;;;1.55;;
44822;SDS011;51097;51.984;5.650;2022-07-03T13:58:25;3.33;;;1.30;;
44822;SDS011;51097;51.984;5.650;2022-07-03T14:00:51;2.10;;;1.83;;
44822;SDS011;51097;51.984;5.650;2022-07-03T14:03:16;4.78;;;1.55;;
44822;SDS011;51097;51.984;5.650;2022-07-03T14:05:42;3.17;;;1.65;;
44822;SDS011;51097;51.984;5.650;2022-07-03T14:08:08;10.63;;;1.80;;
44822;SDS011;51097;51.984;5.650;2022-07-03T14:10:33;3.45;;;1.42;;
44822;SDS011;51097;51.984;5.650;2022-07-03T14:12:59;1.00;;;0.95;;
44822;SDS011;51097;51.984;5.650;2022-07-03T14:15:24;3.58;;;1.83;;
44822;SDS011;51097;51.984;5.650;2022-07-03T14:17:50;5.10;;;0.93;;
44822;SDS011;51097;51.984;5.650;2022-07-03T14:20:15;4.28;;;1.13;;
44822;SDS011;51097;51.984;5.650;2022-07-03T14:22:41;3.60;;;1.17;;
44822;SDS011;51097;51.984;5.650;2022-07-03T14:25:07;1.80;;;1.20;;
44822;SDS011;51097;51.984;5.650;2022-07-03T14:27:34;3.97;;;1.42;;
44822;SDS011;51097;51.984;5.650;2022-07-03T14:30:19;4.30;;;1.60;;
44822;SDS011;51097;51.984;5.650;2022-07-03T14:33:03;4.50;;;1.55;;
44822;SDS011;51097;51.984;5.650;2022-07-03T14:35:28;3.50;;;1.40;;
44822;SDS011;51097;51.984;5.650;2022-07-03T14:37:54;6.50;;;1.60;;
44822;SDS011;51097;51.984;5.650;2022-07-03T14:40:20;3.25;;;1.30;;
44822;SDS011;51097;51.984;5.650;2022-07-03T14:42:45;2.40;;;1.30;;
44822;SDS011;51097;51.984;5.650;2022-07-03T14:45:11;3.35;;;1.17;;
44822;SDS011;51097;51.984;5.650;2022-07-03T14:47:36;4.28;;;1.25;;
44822;SDS011;51097;51.984;5.650;2022-07-03T14:50:02;4.22;;;1.85;;
44822;SDS011;51097;51.984;5.650;2022-07-03T14:52:28;1.95;;;1.48;;
44822;SDS011;51097;51.984;5.650;2022-07-03T14:54:54;3.67;;;1.25;;
44822;SDS011;51097;51.984;5.650;2022-07-03T14:57:23;4.75;;;2.28;;
44822;SDS011;51097;51.984;5.650;2022-07-03T15:00:11;7.65;;;1.60;;
44822;SDS011;51097;51.984;5.650;2022-07-03T15:02:43;2.50;;;1.60;;
44822;SDS011;51097;51.984;5.650;2022-07-03T15:05:27;3.88;;;1.33;;
44822;SDS011;51097;51.984;5.650;2022-07-03T15:08:04;2.97;;;1.70;;
44822;SDS011;51097;51.984;5.650;2022-07-03T15:10:33;3.67;;;1.65;;
44822;SDS011;51097;51.984;5.650;2022-07-03T15:13:01;3.45;;;1.85;;
44822;SDS011;51097;51.984;5.650;2022-07-03T15:15:29;4.40;;;1.88;;
44822;SDS011;51097;51.984;5.650;2022-07-03T15:17:56;2.65;;;1.30;;
44822;SDS011;51097;51.984;5.650;2022-07-03T15:20:33;4.22;;;1.50;;
44822;SDS011;51097;51.984;5.650;2022-07-03T15:23:27;2.55;;;1.30;;
44822;SDS011;51097;51.984;5.650;2022-07-03T15:25:54;2.88;;;1.20;;
44822;SDS011;51097;51.984;5.650;2022-07-03T15:28:20;7.60;;;1.40;;
44822;SDS011;51097;51.984;5.650;2022-07-03T15:30:48;5.50;;;1.60;;
44822;SDS011;51097;51.984;5.650;2022-07-03T15:33:14;2.88;;;1.23;;
44822;SDS011;51097;51.984;5.650;2022-07-03T15:35:45;4.82;;;1.35;;
44822;SDS011;51097;51.984;5.650;2022-07-03T15:38:17;4.18;;;1.35;;
44822;SDS011;51097;51.984;5.650;2022-07-03T15:40:54;1.85;;;1.15;;
44822;SDS011;51097;51.984;5.650;2022-07-03T15:54:09;1.92;;;1.20;;
44822;SDS011;51097;51.984;5.650;2022-07-03T15:56:38;3.25;;;1.40;;
44822;SDS011;51097;51.984;5.650;2022-07-03T15:59:11;5.07;;;2.70;;
44822;SDS011;51097;51.984;5.650;2022-07-03T16:01:57;5.70;;;1.85;;
44822;SDS011;51097;51.984;5.650;2022-07-03T16:07:29;2.30;;;1.55;;
44822;SDS011;51097;51.984;5.650;2022-07-03T16:09:59;2.55;;;1.50;;
44822;SDS011;51097;51.984;5.650;2022-07-03T16:12:27;2.83;;;1.30;;
44822;SDS011;51097;51.984;5.650;2022-07-03T16:14:53;3.47;;;1.40;;
44822;SDS011;51097;51.984;5.650;2022-07-03T16:17:20;2.50;;;1.25;;
44822;SDS011;51097;51.984;5.650;2022-07-03T16:19:47;3.60;;;0.90;;
44822;SDS011;51097;51.984;5.650;2022-07-03T16:22:14;1.85;;;0.80;;
44822;SDS011;51097;51.984;5.650;2022-07-03T16:24:40;2.35;;;1.02;;